Startpagina
METAR-TAF:

METAR-TAF

Vliegvelden :

Internationale luchthaven Tan Son Nhat

Ho Chi Minhstad, Vietnam

breedte: 10-49N, lengte: 106-40E, hoogte: 19 m

Actueel weer

Dit bericht is 27 minuten geleden gemaakt, om 17:30 UTC
Wind 3 kt uit variabele richting
Temperatuur 25°C
Vochtigheid 100%
Druk 1005 hPa
Zicht 10 km of meer
Verspreide wolken op 1500 ft
Gebroken wolken op 5000 ft

METAR: VVTS 181730Z VRB03KT 9999 SCT015 BKN050 25/25 Q1005 NOSIG

Tijdstip: 00:57 (17:57 UTC)

Verwachting

Dit bericht is 57 minuten geleden gemaakt, om 17:00 UTC
Verwachting geldig van 18 om 18 UTC tot 19 om 24 UTC
Wind 10 kt uit het zuidwesten
Zicht 10 km of meer
Verspreide wolken op 1500 ft
Gebroken wolken op 5000 ft
Tijdelijke
van 19 om 08 UTC tot 19 om 12 UTC
Wind 16 kt uit het westzuidwesten met uitschieters tot 31 kt
Zicht: 3000 m
Gebroken wolken op 1300 ft
Verspreide wolken op 1500 ft, Cumulonimbus.
onweer, regen

TAF: VVTS 181700Z 1818/1924 23010KT 9999 SCT015 BKN050 TEMPO 1908/1912 25016G31KT 3000 TSRA BKN013 SCT015CB

Waarnemingen en weersverwachtingen van meer dan 4000 vliegvelden (METAR en TAF).

De beschikbare stations zijn de gele en rode punten op de kaart.

Ga met uw muis naar het station om de naam te zien.

Klik dan om waarnemingen en weersverwachtingen te zien.

kaart wijzigen: klik op de groene knoppen met een zwart kruis om in te zoomen, op de groene knop met een streepje om uit te zoomen of op de groene pijlen voor aangrenzende kaarten.


METAR-TAF: